createdAt,value
2023-05-14T00:00:06.501Z,14.30
2023-05-14T00:02:33.280Z,10.52
2023-05-14T00:05:00.037Z,11.30
2023-05-14T00:07:30.754Z,11.05
2023-05-14T00:09:58.796Z,14.23
2023-05-14T00:12:26.650Z,9.77
2023-05-14T00:14:53.917Z,9.63
2023-05-14T00:17:20.693Z,9.70
2023-05-14T00:19:47.548Z,7.95
2023-05-14T00:22:14.322Z,11.32
2023-05-14T00:24:41.204Z,7.88
2023-05-14T00:27:07.982Z,7.72
2023-05-14T00:29:35.064Z,8.82
2023-05-14T00:32:03.667Z,7.65
2023-05-14T00:34:30.414Z,8.48
2023-05-14T00:36:57.425Z,9.35
2023-05-14T00:39:24.086Z,8.43
2023-05-14T00:41:50.876Z,8.02
2023-05-14T00:44:17.628Z,11.65
2023-05-14T00:46:44.688Z,9.30
2023-05-14T00:49:11.474Z,9.07
2023-05-14T00:51:38.544Z,9.15
2023-05-14T00:54:05.424Z,9.50
2023-05-14T00:56:32.142Z,9.25
2023-05-14T00:58:59.051Z,14.60
2023-05-14T01:01:28.499Z,8.30
2023-05-14T01:03:57.869Z,9.43
2023-05-14T01:06:36.027Z,9.68
2023-05-14T01:09:46.299Z,9.13
2023-05-14T01:12:34.886Z,8.98
2023-05-14T01:15:18.761Z,10.73
2023-05-14T01:18:04.371Z,10.50
2023-05-14T01:20:31.241Z,9.70
2023-05-14T01:22:57.974Z,10.15
2023-05-14T01:25:25.046Z,10.70
2023-05-14T01:28:06.709Z,9.40
2023-05-14T01:30:42.871Z,10.23
2023-05-14T01:33:15.113Z,8.52
2023-05-14T01:35:42.122Z,7.80
2023-05-14T01:38:12.090Z,9.35
2023-05-14T01:40:39.625Z,10.38
2023-05-14T01:43:06.679Z,9.25
2023-05-14T01:45:36.238Z,10.48
2023-05-14T01:48:04.299Z,12.07
2023-05-14T01:50:31.046Z,11.82
2023-05-14T01:52:57.811Z,15.57
2023-05-14T01:55:25.722Z,20.13
2023-05-14T01:57:53.044Z,21.17
2023-05-14T02:04:57.704Z,21.80
2023-05-14T02:07:24.784Z,24.83
2023-05-14T02:09:52.659Z,23.75
2023-05-14T02:12:19.898Z,20.98
2023-05-14T02:14:46.780Z,20.90
2023-05-14T02:17:16.560Z,20.58
2023-05-14T02:19:44.820Z,28.77
2023-05-14T02:22:11.693Z,21.73
2023-05-14T02:24:38.458Z,19.33
2023-05-14T02:27:06.329Z,24.50
2023-05-14T02:29:33.074Z,18.25
2023-05-14T02:31:59.788Z,20.30
2023-05-14T02:34:26.553Z,19.38
2023-05-14T02:36:53.283Z,18.60
2023-05-14T02:39:20.012Z,14.90
2023-05-14T02:41:46.770Z,18.02
2023-05-14T02:44:13.475Z,15.20
2023-05-14T02:46:40.335Z,14.32
2023-05-14T02:49:07.136Z,16.65
2023-05-14T02:51:33.901Z,16.48
2023-05-14T02:54:00.783Z,14.77
2023-05-14T02:56:27.526Z,12.55
2023-05-14T02:58:54.409Z,13.20
2023-05-14T03:01:21.855Z,12.65
2023-05-14T03:03:49.379Z,11.68
2023-05-14T03:06:16.487Z,12.80
2023-05-14T03:08:43.176Z,12.20
2023-05-14T03:11:10.136Z,13.32
2023-05-14T03:13:37.244Z,11.00
2023-05-14T03:16:04.111Z,13.13
2023-05-14T03:18:31.079Z,17.88
2023-05-14T03:20:57.843Z,11.20
2023-05-14T03:23:24.568Z,13.52
2023-05-14T03:25:52.499Z,11.43
2023-05-14T03:28:19.259Z,11.77
2023-05-14T03:30:46.184Z,10.80
2023-05-14T03:33:13.824Z,13.50
2023-05-14T03:35:40.657Z,14.23
2023-05-14T03:38:07.517Z,9.63
2023-05-14T03:40:34.521Z,13.40
2023-05-14T03:43:01.301Z,12.57
2023-05-14T03:45:30.275Z,13.15
2023-05-14T03:47:58.829Z,15.55
2023-05-14T03:50:26.376Z,11.52
2023-05-14T03:52:53.498Z,13.25
2023-05-14T03:55:20.543Z,10.75
2023-05-14T03:57:48.772Z,12.68
2023-05-14T04:00:16.031Z,12.02
2023-05-14T04:02:45.641Z,13.90
2023-05-14T04:05:14.768Z,13.23
2023-05-14T04:07:41.957Z,13.77
2023-05-14T04:10:09.317Z,11.90
2023-05-14T04:12:36.269Z,11.18
2023-05-14T04:15:04.116Z,11.88
2023-05-14T04:17:31.658Z,14.15
2023-05-14T04:19:58.378Z,13.10
2023-05-14T04:22:25.146Z,11.05
2023-05-14T04:24:52.397Z,12.68
2023-05-14T04:27:22.333Z,12.23
2023-05-14T04:29:50.373Z,10.35
2023-05-14T04:32:17.911Z,10.52
2023-05-14T04:34:44.775Z,10.95
2023-05-14T04:37:11.542Z,11.18
2023-05-14T04:39:38.410Z,10.95
2023-05-14T04:42:06.724Z,11.02
2023-05-14T04:44:35.195Z,10.02
2023-05-14T04:47:02.683Z,14.20
2023-05-14T04:49:30.295Z,10.77
2023-05-14T04:51:57.015Z,9.85
2023-05-14T04:54:23.736Z,11.70
2023-05-14T04:56:51.251Z,11.63
2023-05-14T04:59:18.092Z,10.20
2023-05-14T05:01:45.841Z,8.80
2023-05-14T05:04:13.004Z,9.02
2023-05-14T05:06:39.904Z,9.98
2023-05-14T05:09:06.588Z,9.68
2023-05-14T05:11:33.246Z,7.50
2023-05-14T05:13:59.991Z,10.35
2023-05-14T05:16:26.761Z,11.68
2023-05-14T05:18:53.604Z,9.65
2023-05-14T05:21:20.565Z,9.10
2023-05-14T05:23:47.313Z,10.48
2023-05-14T05:26:14.073Z,9.20
2023-05-14T05:28:40.777Z,10.05
2023-05-14T05:31:08.067Z,9.13
2023-05-14T05:33:35.744Z,9.23
2023-05-14T05:36:02.840Z,9.57
2023-05-14T05:38:29.595Z,10.77
2023-05-14T05:40:56.463Z,12.02
2023-05-14T05:43:23.161Z,10.48
2023-05-14T05:45:49.864Z,9.55
2023-05-14T05:48:16.657Z,9.63
2023-05-14T05:50:44.816Z,11.38
2023-05-14T05:53:12.465Z,9.82
2023-05-14T05:55:39.252Z,10.40
2023-05-14T05:58:05.953Z,12.35
2023-05-14T06:00:33.171Z,11.82
2023-05-14T06:03:00.199Z,9.95
2023-05-14T06:05:27.222Z,13.05
2023-05-14T06:07:54.349Z,12.30
2023-05-14T06:10:21.253Z,12.50
2023-05-14T06:12:48.155Z,12.68
2023-05-14T06:15:15.017Z,14.70
2023-05-14T06:17:41.793Z,13.35
2023-05-14T06:20:09.162Z,16.40
2023-05-14T06:22:35.956Z,14.18
2023-05-14T06:25:02.694Z,10.65
2023-05-14T06:27:29.440Z,10.43
2023-05-14T06:29:56.288Z,10.18
2023-05-14T06:32:23.004Z,11.00
2023-05-14T06:34:49.825Z,14.82
2023-05-14T06:37:16.535Z,13.27
2023-05-14T06:39:49.833Z,12.60
2023-05-14T06:42:17.298Z,12.60
2023-05-14T06:44:44.808Z,14.18
2023-05-14T06:47:11.853Z,14.63
2023-05-14T06:49:39.171Z,12.55
2023-05-14T06:52:06.514Z,13.05
2023-05-14T06:54:33.420Z,15.00
2023-05-14T06:57:00.283Z,18.23
2023-05-14T06:59:27.027Z,13.82
2023-05-14T07:01:53.791Z,15.57
2023-05-14T07:04:20.670Z,12.43
2023-05-14T07:06:47.496Z,11.77
2023-05-14T07:09:14.381Z,15.73
2023-05-14T07:11:41.060Z,12.13
2023-05-14T07:14:07.730Z,12.77
2023-05-14T07:16:34.445Z,17.27
2023-05-14T07:19:01.265Z,18.13
2023-05-14T07:21:28.052Z,17.50
2023-05-14T07:23:54.709Z,18.38
2023-05-14T07:26:21.531Z,13.80
2023-05-14T07:28:48.219Z,15.60
2023-05-14T07:31:14.976Z,15.75
2023-05-14T07:33:41.730Z,16.30
2023-05-14T07:36:08.939Z,16.05
2023-05-14T07:38:35.881Z,16.25
2023-05-14T07:41:02.935Z,17.13
2023-05-14T07:43:29.692Z,16.77
2023-05-14T07:45:56.538Z,18.20
2023-05-14T07:48:23.406Z,20.60
2023-05-14T07:50:50.258Z,13.73
2023-05-14T07:53:17.076Z,21.17
2023-05-14T07:55:45.697Z,17.17
2023-05-14T07:58:12.481Z,14.80
2023-05-14T08:00:39.215Z,17.30
2023-05-14T08:03:06.074Z,14.50
2023-05-14T08:05:33.026Z,13.52
2023-05-14T08:07:59.811Z,18.80
2023-05-14T08:10:27.255Z,19.20
2023-05-14T08:12:54.302Z,12.48
2023-05-14T08:15:21.064Z,19.65
2023-05-14T08:17:47.833Z,17.70
2023-05-14T08:20:14.617Z,19.55
2023-05-14T08:22:41.395Z,12.45
2023-05-14T08:25:08.277Z,17.30
2023-05-14T08:27:35.078Z,15.82
2023-05-14T08:30:01.895Z,20.40
2023-05-14T08:32:28.766Z,17.88
2023-05-14T08:34:55.573Z,21.05
2023-05-14T08:37:22.386Z,9.02
2023-05-14T08:39:49.274Z,24.38
2023-05-14T08:42:20.817Z,12.77
2023-05-14T08:45:04.405Z,18.63
2023-05-14T08:47:31.611Z,15.68
2023-05-14T08:50:04.634Z,8.25
2023-05-14T08:52:31.813Z,18.75
2023-05-14T08:55:00.435Z,18.80
2023-05-14T08:57:28.838Z,13.77
2023-05-14T08:59:55.985Z,15.25
2023-05-14T09:02:29.744Z,11.02
2023-05-14T09:04:59.838Z,7.07
2023-05-14T09:07:26.768Z,14.68
2023-05-14T09:09:54.549Z,13.82
2023-05-14T09:12:22.167Z,15.57
2023-05-14T09:14:50.500Z,14.25
2023-05-14T09:17:18.316Z,10.27
2023-05-14T09:19:49.300Z,13.48
2023-05-14T09:22:18.197Z,15.50
2023-05-14T09:24:45.496Z,15.88
2023-05-14T09:27:22.024Z,13.07
2023-05-14T09:29:48.750Z,14.40
2023-05-14T09:32:15.679Z,13.30
2023-05-14T09:34:42.427Z,12.45
2023-05-14T09:37:10.019Z,9.93
2023-05-14T09:39:38.358Z,10.40
2023-05-14T09:42:05.654Z,12.15
2023-05-14T09:44:32.570Z,12.57
2023-05-14T09:46:59.465Z,11.73
2023-05-14T09:49:28.574Z,9.85
2023-05-14T09:51:57.395Z,8.98
2023-05-14T09:54:26.274Z,9.25
2023-05-14T09:56:55.524Z,7.00
2023-05-14T09:59:22.509Z,9.73
2023-05-14T10:01:50.040Z,10.35
2023-05-14T10:04:16.949Z,10.10
2023-05-14T10:06:49.063Z,9.65
2023-05-14T10:09:17.249Z,9.18
2023-05-14T10:11:45.352Z,9.23
2023-05-14T10:14:21.703Z,9.05
2023-05-14T10:16:51.234Z,8.90
2023-05-14T10:19:21.125Z,10.00
2023-05-14T10:22:04.313Z,7.00
2023-05-14T10:24:31.895Z,10.90
2023-05-14T10:26:58.845Z,8.57
2023-05-14T10:29:34.523Z,6.50
2023-05-14T10:32:08.904Z,9.63
2023-05-14T10:34:44.215Z,5.68
2023-05-14T10:37:15.528Z,6.28
2023-05-14T10:39:45.114Z,6.35
2023-05-14T10:42:27.336Z,5.72
2023-05-14T10:45:07.415Z,4.93
2023-05-14T10:47:37.404Z,5.57
2023-05-14T10:50:07.690Z,5.63
2023-05-14T10:52:35.159Z,6.25
2023-05-14T10:55:09.997Z,7.25
2023-05-14T10:57:40.068Z,5.30
2023-05-14T11:00:08.863Z,9.20
2023-05-14T11:02:40.636Z,5.80
2023-05-14T11:05:11.437Z,6.95
2023-05-14T11:07:41.463Z,5.15
2023-05-14T11:10:15.104Z,4.68
2023-05-14T11:12:47.202Z,4.82
2023-05-14T11:15:18.777Z,5.30
2023-05-14T11:17:46.971Z,6.65
2023-05-14T11:20:14.369Z,4.30
2023-05-14T11:22:42.436Z,4.40
2023-05-14T11:25:10.668Z,8.13
2023-05-14T11:27:38.903Z,5.53
2023-05-14T11:30:16.045Z,7.88
2023-05-14T11:32:46.353Z,8.20
2023-05-14T11:35:14.020Z,4.60
2023-05-14T11:37:41.217Z,5.18
2023-05-14T11:40:14.638Z,5.30
2023-05-14T11:42:41.713Z,4.78
2023-05-14T11:45:12.593Z,6.90
2023-05-14T11:47:41.270Z,4.75
2023-05-14T11:50:09.534Z,4.53
2023-05-14T11:52:41.383Z,7.05
2023-05-14T11:55:12.840Z,8.38
2023-05-14T11:57:40.834Z,3.85
2023-05-14T12:00:10.957Z,4.70
2023-05-14T12:02:37.919Z,5.05
2023-05-14T12:05:10.495Z,4.70
2023-05-14T12:07:37.395Z,4.85
2023-05-14T12:10:04.793Z,4.32
2023-05-14T12:12:36.998Z,5.53
2023-05-14T12:15:12.722Z,4.72
2023-05-14T12:17:39.794Z,7.57
2023-05-14T12:20:13.516Z,3.90
2023-05-14T12:22:42.242Z,5.22
2023-05-14T12:25:16.016Z,5.32
2023-05-14T12:27:45.013Z,4.50
2023-05-14T12:30:21.336Z,3.05
2023-05-14T12:32:51.718Z,4.78
2023-05-14T12:35:19.035Z,4.00
2023-05-14T12:37:45.927Z,3.90
2023-05-14T12:40:12.898Z,4.10
2023-05-14T12:42:39.721Z,3.88
2023-05-14T12:45:08.540Z,6.10
2023-05-14T12:47:36.830Z,2.30
2023-05-14T12:50:04.605Z,3.85
2023-05-14T12:55:01.375Z,5.07
2023-05-14T12:57:29.127Z,5.32
2023-05-14T12:59:57.040Z,4.15
2023-05-14T13:02:23.822Z,4.95
2023-05-14T13:04:50.609Z,4.57
2023-05-14T13:07:17.294Z,3.50
2023-05-14T13:09:43.994Z,4.45
2023-05-14T13:12:10.855Z,7.90
2023-05-14T13:14:37.632Z,3.60
2023-05-14T13:17:05.361Z,5.43
2023-05-14T13:19:32.250Z,4.07
2023-05-14T13:21:59.063Z,3.42
2023-05-14T13:24:25.918Z,4.00
2023-05-14T13:26:52.736Z,4.53
2023-05-14T13:29:19.527Z,3.67
2023-05-14T13:31:46.302Z,4.25
2023-05-14T13:34:13.168Z,5.10
2023-05-14T13:36:40.686Z,4.07
2023-05-14T13:39:07.580Z,3.40
2023-05-14T13:41:37.836Z,3.85
2023-05-14T13:44:04.835Z,5.90
2023-05-14T13:46:31.602Z,7.03
2023-05-14T13:48:58.383Z,4.90
2023-05-14T13:51:25.178Z,5.47
2023-05-14T13:53:51.861Z,5.07
2023-05-14T13:56:18.851Z,6.35
2023-05-14T13:58:45.686Z,3.85
2023-05-14T14:01:12.391Z,5.88
2023-05-14T14:03:39.159Z,4.93
2023-05-14T14:06:06.033Z,6.40
2023-05-14T14:08:32.810Z,5.88
2023-05-14T14:10:59.553Z,7.03
2023-05-14T14:13:26.267Z,4.22
2023-05-14T14:15:53.083Z,4.25
2023-05-14T14:18:19.851Z,3.60
2023-05-14T14:20:46.684Z,3.17
2023-05-14T14:23:13.495Z,3.45
2023-05-14T14:25:40.354Z,6.63
2023-05-14T14:28:07.069Z,5.32
2023-05-14T14:30:34.647Z,4.80
2023-05-14T14:33:01.524Z,3.33
2023-05-14T14:35:28.418Z,3.17
2023-05-14T14:37:55.706Z,3.78
2023-05-14T14:40:23.955Z,3.38
2023-05-14T14:42:50.821Z,5.10
2023-05-14T14:45:17.896Z,3.60
2023-05-14T14:47:46.401Z,4.78
2023-05-14T14:50:13.551Z,6.47
2023-05-14T14:52:45.516Z,7.25
2023-05-14T14:55:12.851Z,5.55
2023-05-14T14:57:39.703Z,5.38
2023-05-14T15:00:07.509Z,7.90
2023-05-14T15:02:34.881Z,5.18
2023-05-14T15:05:01.782Z,4.25
2023-05-14T15:07:32.724Z,5.57
2023-05-14T15:09:59.537Z,3.83
2023-05-14T15:12:26.259Z,3.13
2023-05-14T15:14:52.967Z,4.05
2023-05-14T15:17:19.702Z,3.80
2023-05-14T15:19:46.507Z,4.35
2023-05-14T15:22:13.451Z,5.22
2023-05-14T15:24:40.234Z,4.63
2023-05-14T15:27:07.004Z,4.43
2023-05-14T15:29:33.759Z,4.68
2023-05-14T15:32:00.630Z,3.88
2023-05-14T15:34:27.385Z,5.55
2023-05-14T15:36:54.100Z,3.47
2023-05-14T15:39:20.856Z,3.20
2023-05-14T15:41:47.567Z,3.88
2023-05-14T15:44:14.341Z,3.95
2023-05-14T15:46:41.127Z,4.68
2023-05-14T15:49:07.846Z,7.30
2023-05-14T15:51:34.734Z,4.22
2023-05-14T15:54:01.540Z,9.07
2023-05-14T15:56:28.161Z,3.60
2023-05-14T15:58:54.931Z,4.05
2023-05-14T16:01:21.777Z,3.78
2023-05-14T16:03:48.532Z,3.65
2023-05-14T16:06:15.389Z,5.35
2023-05-14T16:08:42.116Z,5.00
2023-05-14T16:11:08.902Z,5.60
2023-05-14T16:13:37.701Z,7.55
2023-05-14T16:16:04.765Z,5.72
2023-05-14T16:18:31.545Z,8.73
2023-05-14T16:20:58.288Z,6.10
2023-05-14T16:23:25.481Z,4.10
2023-05-14T16:25:52.142Z,4.15
2023-05-14T16:28:18.882Z,3.45
2023-05-14T16:30:45.564Z,6.20
2023-05-14T16:33:12.308Z,4.65
2023-05-14T16:35:39.449Z,4.90
2023-05-14T16:38:06.398Z,5.40
2023-05-14T16:40:33.101Z,6.32
2023-05-14T16:42:59.794Z,4.15
2023-05-14T16:45:26.720Z,4.65
2023-05-14T16:47:53.910Z,9.63
2023-05-14T16:50:20.928Z,4.55
2023-05-14T16:52:47.691Z,6.25
2023-05-14T16:55:14.518Z,7.00
2023-05-14T16:57:41.329Z,5.85
2023-05-14T17:00:09.491Z,5.43
2023-05-14T17:02:36.396Z,4.00
2023-05-14T17:05:03.990Z,4.70
2023-05-14T17:07:31.413Z,4.05
2023-05-14T17:09:59.836Z,4.40
2023-05-14T17:12:26.988Z,5.43
2023-05-14T17:14:53.706Z,6.05
2023-05-14T17:17:20.445Z,7.72
2023-05-14T17:19:47.245Z,5.63
2023-05-14T17:22:14.313Z,5.53
2023-05-14T17:24:42.360Z,6.45
2023-05-14T17:27:10.444Z,4.95
2023-05-14T17:29:37.214Z,4.65
2023-05-14T17:32:04.387Z,4.35
2023-05-14T17:34:31.182Z,5.03
2023-05-14T17:36:57.913Z,10.45
2023-05-14T17:39:24.612Z,4.68
2023-05-14T17:41:51.301Z,6.75
2023-05-14T17:44:18.086Z,5.93
2023-05-14T17:46:45.765Z,6.22
2023-05-14T17:49:12.592Z,5.38
2023-05-14T17:51:39.309Z,4.85
2023-05-14T17:54:06.084Z,6.68
2023-05-14T17:56:32.946Z,3.85
2023-05-14T17:59:00.280Z,4.07
2023-05-14T18:01:27.086Z,5.82
2023-05-14T18:03:53.940Z,6.63
2023-05-14T18:06:20.797Z,4.60
2023-05-14T18:08:47.568Z,5.75
2023-05-14T18:11:14.274Z,4.30
2023-05-14T18:13:41.005Z,7.20
2023-05-14T18:16:08.117Z,5.28
2023-05-14T18:18:35.061Z,4.65
2023-05-14T18:21:01.893Z,4.00
2023-05-14T18:23:28.762Z,6.30
2023-05-14T18:25:55.594Z,9.02
2023-05-14T18:28:22.426Z,5.00
2023-05-14T18:30:49.767Z,6.82
2023-05-14T18:33:16.607Z,5.55
2023-05-14T18:35:46.054Z,4.30
2023-05-14T18:38:13.684Z,6.35
2023-05-14T18:40:40.565Z,4.63
2023-05-14T18:43:07.516Z,5.05
2023-05-14T18:45:34.223Z,5.03
2023-05-14T18:48:01.135Z,4.40
2023-05-14T18:50:27.981Z,3.70
2023-05-14T18:52:54.699Z,3.55
2023-05-14T18:55:21.430Z,3.53
2023-05-14T18:57:48.303Z,5.35
2023-05-14T19:00:15.652Z,4.72
2023-05-14T19:02:42.615Z,6.43
2023-05-14T19:05:09.776Z,5.85
2023-05-14T19:07:40.857Z,5.10
2023-05-14T19:10:08.692Z,3.38
2023-05-14T19:12:35.454Z,5.22
2023-05-14T19:15:02.423Z,4.18
2023-05-14T19:17:32.709Z,3.83
2023-05-14T19:19:59.590Z,4.53
2023-05-14T19:22:26.329Z,4.65
2023-05-14T19:24:53.060Z,4.05
2023-05-14T19:27:20.642Z,6.72
2023-05-14T19:29:47.350Z,5.88
2023-05-14T19:32:14.059Z,3.90
2023-05-14T19:34:41.061Z,4.82
2023-05-14T19:37:07.953Z,4.68
2023-05-14T19:39:35.261Z,3.55
2023-05-14T19:42:02.042Z,4.15
2023-05-14T19:44:28.856Z,4.35
2023-05-14T19:46:55.704Z,4.07
2023-05-14T19:49:22.521Z,5.32
2023-05-14T19:51:49.257Z,7.22
2023-05-14T19:54:15.985Z,5.03
2023-05-14T19:56:42.837Z,4.45
2023-05-14T19:59:09.613Z,3.97
2023-05-14T20:01:36.557Z,4.03
2023-05-14T20:04:03.751Z,5.40
2023-05-14T20:06:30.817Z,4.35
2023-05-14T20:08:57.562Z,5.95
2023-05-14T20:11:24.296Z,3.80
2023-05-14T20:13:51.120Z,5.15
2023-05-14T20:16:18.570Z,3.63
2023-05-14T20:18:45.615Z,5.47
2023-05-14T20:21:12.488Z,4.35
2023-05-14T20:23:39.202Z,3.85
2023-05-14T20:26:05.975Z,4.22
2023-05-14T20:28:32.754Z,7.00
2023-05-14T20:31:00.164Z,4.97
2023-05-14T20:33:28.994Z,5.63
2023-05-14T20:35:55.907Z,4.53
2023-05-14T20:38:22.817Z,7.35
2023-05-14T20:40:49.524Z,4.50
2023-05-14T20:43:16.400Z,5.28
2023-05-14T20:45:43.107Z,4.82
2023-05-14T20:48:12.016Z,3.65
2023-05-14T20:50:38.798Z,4.55
2023-05-14T20:53:05.548Z,8.35
2023-05-14T20:55:32.286Z,5.25
2023-05-14T20:57:58.966Z,5.35
2023-05-14T21:00:25.964Z,3.97
2023-05-14T21:02:53.189Z,5.22
2023-05-14T21:05:20.775Z,4.78
2023-05-14T21:07:47.793Z,5.00
2023-05-14T21:10:14.564Z,5.40
2023-05-14T21:12:42.642Z,4.07
2023-05-14T21:15:10.806Z,5.85
2023-05-14T21:17:37.567Z,9.02
2023-05-14T21:20:04.749Z,7.75
2023-05-14T21:22:31.464Z,6.85
2023-05-14T21:24:58.203Z,5.32
2023-05-14T21:27:24.930Z,6.35
2023-05-14T21:29:51.663Z,5.50
2023-05-14T21:32:20.104Z,5.53
2023-05-14T21:34:46.845Z,7.13
2023-05-14T21:37:13.554Z,5.75
2023-05-14T21:39:40.230Z,5.88
2023-05-14T21:42:07.612Z,7.03
2023-05-14T21:44:34.297Z,5.47
2023-05-14T21:47:00.986Z,6.05
2023-05-14T21:49:27.701Z,5.78
2023-05-14T21:51:54.589Z,7.60
2023-05-14T21:54:21.480Z,6.68
2023-05-14T21:56:48.474Z,6.70
2023-05-14T21:59:15.365Z,5.88
2023-05-14T22:04:12.646Z,8.65
2023-05-14T22:06:39.540Z,6.53
2023-05-14T22:09:06.203Z,5.57
2023-05-14T22:11:33.005Z,8.82
2023-05-14T22:13:59.756Z,6.07
2023-05-14T22:16:26.853Z,6.82
2023-05-14T22:18:54.069Z,7.35
2023-05-14T22:21:20.765Z,5.88
2023-05-14T22:23:47.958Z,9.15
2023-05-14T22:26:15.937Z,5.82
2023-05-14T22:28:43.622Z,6.45
2023-05-14T22:31:10.647Z,6.50
2023-05-14T22:33:37.482Z,6.25
2023-05-14T22:36:04.551Z,8.48
2023-05-14T22:38:31.244Z,8.75
2023-05-14T22:40:58.024Z,8.02
2023-05-14T22:43:24.798Z,8.40
2023-05-14T22:45:51.646Z,7.22
2023-05-14T22:48:18.407Z,11.82
2023-05-14T22:50:45.147Z,6.72
2023-05-14T22:53:11.862Z,10.70
2023-05-14T22:55:38.609Z,7.05
2023-05-14T22:58:05.566Z,7.28
2023-05-14T23:00:32.345Z,6.15
2023-05-14T23:02:59.081Z,8.00
2023-05-14T23:05:26.109Z,6.25
2023-05-14T23:07:53.439Z,8.98
2023-05-14T23:10:20.310Z,9.07
2023-05-14T23:12:47.092Z,8.35
2023-05-14T23:15:13.834Z,9.20
2023-05-14T23:17:40.815Z,9.02
2023-05-14T23:20:10.756Z,11.98
2023-05-14T23:22:37.436Z,8.50
2023-05-14T23:25:05.206Z,6.90
2023-05-14T23:27:31.900Z,8.40
2023-05-14T23:29:58.621Z,8.82
2023-05-14T23:32:25.434Z,9.57
2023-05-14T23:34:52.234Z,10.70
2023-05-14T23:37:18.967Z,9.02
2023-05-14T23:39:45.663Z,12.75
2023-05-14T23:42:12.328Z,7.25
2023-05-14T23:44:39.052Z,9.52
2023-05-14T23:47:06.005Z,10.07
2023-05-14T23:49:32.705Z,13.27
2023-05-14T23:51:59.421Z,11.23
2023-05-14T23:54:26.130Z,13.75
2023-05-14T23:56:52.887Z,13.13
2023-05-14T23:59:19.752Z,10.70
